Time;durP1;ratioP1;P1;durP2;ratioP2;P2;SDS_P1;SDS_P2;PMS_P1;PMS_P2;Temp;Humidity;BMP_temperature;BMP_pressure;BME280_temperature;BME280_humidity;BME280_pressure;Samples;Min_cycle;Max_cycle;Signal;HPM_P1;HPM_P2
2023/04/01 00:01:14;;;;;;;5.57;3.53;;;;;;;;;;4990732;28;20577;-46
2023/04/01 00:03:40;;;;;;;3.20;2.50;;;;;;;;;;4992745;28;20706;-46
2023/04/01 00:06:07;;;;;;;10.67;3.83;;;;;;;;;;4987357;28;20741;-46
2023/04/01 00:08:33;;;;;;;4.17;3.27;;;;;;;;;;4986766;28;20427;-46
2023/04/01 00:10:59;;;;;;;4.53;3.37;;;;;;;;;;4986806;28;20404;-46
2023/04/01 00:13:26;;;;;;;9.10;5.93;;;;;;;;;;4981979;28;20408;-45
2023/04/01 00:15:53;;;;;;;4.23;3.00;;;;;;;;;;4983504;28;20417;-44
2023/04/01 00:18:19;;;;;;;6.10;3.30;;;;;;;;;;4986213;28;20496;-45
2023/04/01 00:20:46;;;;;;;9.53;4.57;;;;;;;;;;4982690;28;20400;-44
2023/04/01 00:23:12;;;;;;;4.03;3.47;;;;;;;;;;4983236;28;20575;-46
2023/04/01 00:25:38;;;;;;;8.90;4.20;;;;;;;;;;4982589;28;20780;-46
2023/04/01 00:28:04;;;;;;;4.20;3.03;;;;;;;;;;4987739;28;20534;-45
2023/04/01 00:30:30;;;;;;;5.87;3.93;;;;;;;;;;4982911;28;20414;-45
2023/04/01 00:32:56;;;;;;;5.30;3.67;;;;;;;;;;4972582;28;20460;-44
2023/04/01 00:35:23;;;;;;;4.57;3.50;;;;;;;;;;4983093;28;20480;-44
2023/04/01 00:37:49;;;;;;;8.40;3.93;;;;;;;;;;4982110;28;20411;-45
2023/04/01 00:40:27;;;;;;;4.80;3.93;;;;;;;;;;4990466;28;20420;-44
2023/04/01 00:42:53;;;;;;;8.33;3.70;;;;;;;;;;4982419;28;20444;-45
2023/04/01 00:45:27;;;;;;;4.83;3.53;;;;;;;;;;4984887;28;20923;-45
2023/04/01 00:47:53;;;;;;;5.73;3.83;;;;;;;;;;4983035;28;20529;-45
2023/04/01 00:50:19;;;;;;;8.43;3.70;;;;;;;;;;4978155;28;20408;-45
2023/04/01 00:52:46;;;;;;;3.80;3.40;;;;;;;;;;4985385;28;20426;-45
2023/04/01 00:55:13;;;;;;;3.70;3.30;;;;;;;;;;4981563;28;20413;-44
2023/04/01 00:57:40;;;;;;;5.80;4.13;;;;;;;;;;4983284;28;20422;-45
2023/04/01 01:00:09;;;;;;;6.00;3.63;;;;;;;;;;4983206;28;20433;-45
2023/04/01 01:02:35;;;;;;;8.90;4.80;;;;;;;;;;4981887;28;20424;-45
2023/04/01 01:05:01;;;;;;;5.07;3.50;;;;;;;;;;4982556;28;20437;-47
2023/04/01 01:07:45;;;;;;;7.03;5.50;;;;;;;;;;4980839;28;20475;-45
2023/04/01 01:10:14;;;;;;;6.47;4.00;;;;;;;;;;4987141;28;20989;-45
2023/04/01 01:12:41;;;;;;;4.27;3.47;;;;;;;;;;4983242;28;20411;-46
2023/04/01 01:15:22;;;;;;;5.07;3.60;;;;;;;;;;4978056;28;20839;-44
2023/04/01 01:18:08;;;;;;;3.80;3.37;;;;;;;;;;4978605;28;20439;-46
2023/04/01 01:20:49;;;;;;;4.33;3.93;;;;;;;;;;4979746;28;20411;-46
2023/04/01 01:23:54;;;;;;;6.77;3.83;;;;;;;;;;4982364;28;20506;-46
2023/04/01 01:26:37;;;;;;;5.00;3.73;;;;;;;;;;4920867;29;20511;-46
2023/04/01 01:29:12;;;;;;;3.87;3.53;;;;;;;;;;4919167;29;20450;-45
2023/04/01 01:31:54;;;;;;;3.87;3.40;;;;;;;;;;4958633;28;20938;-45
2023/04/01 01:34:39;;;;;;;4.67;3.23;;;;;;;;;;4984743;28;20412;-46
2023/04/01 01:37:14;;;;;;;5.23;4.37;;;;;;;;;;4982208;28;20429;-47
2023/04/01 01:39:42;;;;;;;7.17;3.57;;;;;;;;;;4982436;28;20432;-46
2023/04/01 01:42:10;;;;;;;5.10;4.03;;;;;;;;;;4982940;28;20505;-47
2023/04/01 01:44:37;;;;;;;5.53;3.07;;;;;;;;;;4982165;28;20484;-46
2023/04/01 01:47:03;;;;;;;4.57;3.53;;;;;;;;;;4983787;28;20470;-45
2023/04/01 01:49:31;;;;;;;4.93;3.67;;;;;;;;;;4981117;28;20432;-46
2023/04/01 01:51:57;;;;;;;4.53;3.30;;;;;;;;;;4987008;28;20424;-46
2023/04/01 01:54:23;;;;;;;3.90;3.27;;;;;;;;;;4980867;28;20419;-46
2023/04/01 01:56:51;;;;;;;6.07;3.77;;;;;;;;;;4981855;28;20416;-46
2023/04/01 01:59:18;;;;;;;4.93;3.77;;;;;;;;;;4982102;28;20499;-46
2023/04/01 02:01:46;;;;;;;8.57;4.00;;;;;;;;;;4981407;28;20450;-47
2023/04/01 02:04:13;;;;;;;5.80;3.60;;;;;;;;;;4983366;28;20424;-46
2023/04/01 02:06:42;;;;;;;6.40;3.60;;;;;;;;;;4984351;28;20464;-46
2023/04/01 02:09:10;;;;;;;9.63;3.87;;;;;;;;;;4985043;28;20508;-46
2023/04/01 02:11:39;;;;;;;6.53;3.80;;;;;;;;;;4980836;28;20417;-46
2023/04/01 02:14:07;;;;;;;5.87;3.77;;;;;;;;;;4976226;28;20492;-48
2023/04/01 02:16:35;;;;;;;5.57;3.33;;;;;;;;;;4980113;28;20440;-46
2023/04/01 02:19:02;;;;;;;4.37;3.40;;;;;;;;;;4981112;28;20963;-47
2023/04/01 02:21:31;;;;;;;4.57;3.90;;;;;;;;;;4984006;28;20418;-47
2023/04/01 02:23:58;;;;;;;8.10;4.23;;;;;;;;;;4980964;28;20895;-47
2023/04/01 02:26:26;;;;;;;5.37;3.63;;;;;;;;;;4983021;28;20560;-47
2023/04/01 02:28:53;;;;;;;2.77;2.50;;;;;;;;;;4980873;28;20435;-47
2023/04/01 02:31:19;;;;;;;4.70;3.63;;;;;;;;;;4980111;28;20428;-47
2023/04/01 02:33:45;;;;;;;5.07;3.80;;;;;;;;;;4984840;28;20410;-47
2023/04/01 02:36:15;;;;;;;3.67;3.33;;;;;;;;;;4977297;28;20434;-47
2023/04/01 02:38:41;;;;;;;5.03;3.80;;;;;;;;;;4980479;28;20788;-47
2023/04/01 02:41:07;;;;;;;7.80;4.53;;;;;;;;;;4981619;28;20905;-46
2023/04/01 02:43:33;;;;;;;3.57;3.27;;;;;;;;;;4982512;28;20422;-47
2023/04/01 02:45:59;;;;;;;4.63;3.53;;;;;;;;;;4984730;28;20421;-47
2023/04/01 02:48:25;;;;;;;5.50;3.67;;;;;;;;;;4989301;28;20435;-47
2023/04/01 02:50:51;;;;;;;3.60;3.23;;;;;;;;;;4986124;28;20439;-47
2023/04/01 02:53:17;;;;;;;3.60;3.10;;;;;;;;;;4981895;28;20436;-47
2023/04/01 02:55:44;;;;;;;4.00;3.60;;;;;;;;;;4982405;28;20404;-47
2023/04/01 02:58:10;;;;;;;4.70;3.57;;;;;;;;;;4985769;28;20850;-46
2023/04/01 03:00:36;;;;;;;3.90;3.10;;;;;;;;;;4987723;28;20779;-47
2023/04/01 03:03:02;;;;;;;8.10;4.80;;;;;;;;;;4984447;28;20417;-47
2023/04/01 03:05:29;;;;;;;4.63;2.47;;;;;;;;;;4987627;28;20921;-47
2023/04/01 03:07:55;;;;;;;6.13;3.57;;;;;;;;;;4986418;28;20460;-47
2023/04/01 03:10:21;;;;;;;2.53;2.30;;;;;;;;;;4980713;28;20420;-47
2023/04/01 03:12:47;;;;;;;3.73;3.17;;;;;;;;;;4987363;28;20410;-47
2023/04/01 03:15:14;;;;;;;5.30;3.00;;;;;;;;;;4983598;28;20795;-47
2023/04/01 03:17:40;;;;;;;4.80;3.80;;;;;;;;;;4984975;28;20461;-47
2023/04/01 03:20:08;;;;;;;2.87;2.57;;;;;;;;;;4985433;28;20501;-47
2023/04/01 03:22:34;;;;;;;3.77;3.30;;;;;;;;;;4984994;28;20829;-47
2023/04/01 03:25:00;;;;;;;2.97;2.67;;;;;;;;;;4984887;28;20476;-47
2023/04/01 03:27:26;;;;;;;4.37;3.97;;;;;;;;;;4983760;28;20547;-47
2023/04/01 03:29:52;;;;;;;4.87;3.23;;;;;;;;;;4989272;28;20439;-48
2023/04/01 03:32:19;;;;;;;5.00;3.20;;;;;;;;;;4983240;28;20414;-48
2023/04/01 03:34:45;;;;;;;3.70;2.70;;;;;;;;;;4983444;28;20795;-47
2023/04/01 03:37:10;;;;;;;6.63;3.37;;;;;;;;;;4984924;28;20415;-47
2023/04/01 03:39:36;;;;;;;4.10;2.67;;;;;;;;;;4983687;28;20435;-47
2023/04/01 03:42:02;;;;;;;3.83;3.00;;;;;;;;;;4984408;28;20479;-47
2023/04/01 03:44:32;;;;;;;7.43;5.80;;;;;;;;;;4986520;28;20429;-47
2023/04/01 03:46:58;;;;;;;3.23;2.57;;;;;;;;;;4987418;28;20470;-47
2023/04/01 03:49:24;;;;;;;4.17;2.57;;;;;;;;;;4981150;28;21016;-47
2023/04/01 03:51:50;;;;;;;4.90;3.17;;;;;;;;;;4981297;28;20415;-47
2023/04/01 03:54:16;;;;;;;4.80;3.60;;;;;;;;;;4985637;28;20432;-47
2023/04/01 03:56:43;;;;;;;3.93;3.03;;;;;;;;;;4985033;28;20962;-47
2023/04/01 03:59:09;;;;;;;4.53;3.73;;;;;;;;;;4984810;28;20495;-47
2023/04/01 04:01:35;;;;;;;4.03;3.33;;;;;;;;;;4985390;28;20470;-47
2023/04/01 04:04:01;;;;;;;6.90;3.80;;;;;;;;;;4986015;28;20413;-48
2023/04/01 04:06:27;;;;;;;6.50;3.90;;;;;;;;;;4980620;28;20469;-47
2023/04/01 04:08:53;;;;;;;4.20;3.50;;;;;;;;;;4986128;28;20988;-47
2023/04/01 04:11:20;;;;;;;4.37;3.83;;;;;;;;;;4985049;28;20413;-47
2023/04/01 04:13:47;;;;;;;4.93;4.20;;;;;;;;;;4984396;28;20772;-47
2023/04/01 04:16:13;;;;;;;5.00;4.10;;;;;;;;;;4984225;28;20936;-47
2023/04/01 04:18:39;;;;;;;4.83;4.23;;;;;;;;;;4982677;28;20455;-48
2023/04/01 04:21:05;;;;;;;4.87;4.37;;;;;;;;;;4982304;28;20426;-47
2023/04/01 04:23:33;;;;;;;5.10;4.50;;;;;;;;;;4989286;28;20416;-47
2023/04/01 04:26:09;;;;;;;4.97;3.97;;;;;;;;;;4987298;28;20427;-46
2023/04/01 04:28:35;;;;;;;4.20;3.80;;;;;;;;;;4985973;28;20434;-48
2023/04/01 04:31:01;;;;;;;8.90;4.50;;;;;;;;;;4981192;28;20418;-47
2023/04/01 04:33:27;;;;;;;5.57;4.10;;;;;;;;;;4983351;28;20912;-47
2023/04/01 04:35:56;;;;;;;20.60;11.20;;;;;;;;;;4982907;28;20923;-47
2023/04/01 04:38:22;;;;;;;5.43;4.50;;;;;;;;;;4986172;28;20479;-46
2023/04/01 04:40:48;;;;;;;7.60;4.67;;;;;;;;;;4985392;28;20439;-47
2023/04/01 04:43:15;;;;;;;6.13;5.07;;;;;;;;;;4987855;28;20413;-47
2023/04/01 04:45:41;;;;;;;9.60;6.73;;;;;;;;;;4979548;28;20424;-47
2023/04/01 04:48:10;;;;;;;5.93;4.70;;;;;;;;;;4982364;28;20771;-46
2023/04/01 04:50:36;;;;;;;6.47;5.43;;;;;;;;;;4985797;28;20414;-46
2023/04/01 04:53:03;;;;;;;10.20;5.77;;;;;;;;;;4983936;28;20416;-47
2023/04/01 04:55:29;;;;;;;5.30;4.50;;;;;;;;;;4985670;28;20411;-46
2023/04/01 04:57:55;;;;;;;6.33;4.20;;;;;;;;;;4982022;28;20475;-47
2023/04/01 05:00:21;;;;;;;6.43;4.60;;;;;;;;;;4985676;28;20511;-47
2023/04/01 05:02:47;;;;;;;4.67;4.00;;;;;;;;;;4982815;28;20412;-47
2023/04/01 05:05:13;;;;;;;5.50;3.70;;;;;;;;;;4982782;28;20426;-46
2023/04/01 05:07:39;;;;;;;5.50;4.83;;;;;;;;;;4985657;28;20500;-47
2023/04/01 05:10:06;;;;;;;5.13;4.33;;;;;;;;;;4981888;28;20440;-47
2023/04/01 05:12:35;;;;;;;6.03;4.30;;;;;;;;;;4976956;28;20433;-47
2023/04/01 05:15:02;;;;;;;4.60;4.10;;;;;;;;;;4974400;28;20420;-46
2023/04/01 05:17:27;;;;;;;7.73;5.50;;;;;;;;;;4982041;28;20432;-46
2023/04/01 05:19:53;;;;;;;5.73;3.90;;;;;;;;;;4978247;28;20886;-46
2023/04/01 05:22:19;;;;;;;5.23;4.37;;;;;;;;;;4983388;28;20794;-47
2023/04/01 05:24:45;;;;;;;6.80;4.83;;;;;;;;;;4985694;28;20419;-47
2023/04/01 05:27:11;;;;;;;4.20;3.80;;;;;;;;;;4987178;28;20468;-46
2023/04/01 05:29:37;;;;;;;3.90;3.50;;;;;;;;;;4983010;28;20916;-46
2023/04/01 05:32:03;;;;;;;8.80;4.07;;;;;;;;;;4983231;28;20923;-47
2023/04/01 05:34:29;;;;;;;5.20;4.70;;;;;;;;;;4981350;28;20500;-46
2023/04/01 05:36:55;;;;;;;4.07;3.67;;;;;;;;;;4981437;28;20411;-46
2023/04/01 05:39:21;;;;;;;5.87;4.70;;;;;;;;;;4984208;28;20530;-47
2023/04/01 05:41:47;;;;;;;5.50;3.97;;;;;;;;;;4983861;28;20515;-47
2023/04/01 05:44:13;;;;;;;7.13;4.40;;;;;;;;;;4985736;28;20791;-47
2023/04/01 05:46:39;;;;;;;7.10;4.73;;;;;;;;;;4979672;28;20511;-47
2023/04/01 05:49:05;;;;;;;4.30;3.47;;;;;;;;;;4977505;28;20915;-47
2023/04/01 05:51:31;;;;;;;4.93;4.43;;;;;;;;;;4984493;28;20507;-46
2023/04/01 05:53:57;;;;;;;4.87;4.17;;;;;;;;;;4982388;28;20419;-47
2023/04/01 05:56:23;;;;;;;4.97;4.10;;;;;;;;;;4984559;28;20416;-47
2023/04/01 05:58:52;;;;;;;3.60;3.30;;;;;;;;;;4981693;28;20444;-47
2023/04/01 06:01:18;;;;;;;4.77;3.80;;;;;;;;;;4984074;28;20475;-47
2023/04/01 06:03:44;;;;;;;6.90;4.63;;;;;;;;;;4980800;28;20747;-47
2023/04/01 06:06:20;;;;;;;6.40;4.57;;;;;;;;;;4982275;28;20832;-47
2023/04/01 06:08:46;;;;;;;6.70;5.20;;;;;;;;;;4980807;28;20458;-47
2023/04/01 06:11:30;;;;;;;6.23;4.83;;;;;;;;;;4980856;28;20962;-47
2023/04/01 06:14:05;;;;;;;4.77;4.07;;;;;;;;;;4979249;28;20449;-48
2023/04/01 06:16:36;;;;;;;5.73;4.67;;;;;;;;;;4979129;28;20923;-46
2023/04/01 06:19:10;;;;;;;6.23;4.87;;;;;;;;;;4984643;28;20465;-46
2023/04/01 06:21:36;;;;;;;5.43;3.60;;;;;;;;;;4984803;28;20481;-46
2023/04/01 06:24:05;;;;;;;8.57;4.57;;;;;;;;;;4982425;28;20547;-46
2023/04/01 06:26:37;;;;;;;6.00;4.47;;;;;;;;;;4984354;28;20481;-46
2023/04/01 06:29:03;;;;;;;7.17;4.13;;;;;;;;;;4983671;28;20436;-46
2023/04/01 06:31:58;;;;;;;7.53;4.10;;;;;;;;;;4978760;28;20419;-47
2023/04/01 06:34:43;;;;;;;3.70;3.30;;;;;;;;;;4916214;28;20503;-46
2023/04/01 06:37:28;;;;;;;5.63;4.67;;;;;;;;;;4981726;28;20411;-47
2023/04/01 06:40:03;;;;;;;7.90;4.43;;;;;;;;;;4985058;28;20442;-47
2023/04/01 06:42:41;;;;;;;5.80;3.93;;;;;;;;;;4973107;28;20432;-47
2023/04/01 06:45:20;;;;;;;10.60;6.50;;;;;;;;;;4974604;28;20919;-48
2023/04/01 06:48:05;;;;;;;4.60;4.13;;;;;;;;;;4979468;28;20913;-47
2023/04/01 06:50:41;;;;;;;5.80;5.03;;;;;;;;;;4965484;28;20984;-47
2023/04/01 06:53:22;;;;;;;4.40;3.90;;;;;;;;;;4971123;28;20415;-46
2023/04/01 06:56:08;;;;;;;4.73;4.23;;;;;;;;;;4979800;28;20783;-47
2023/04/01 06:58:56;;;;;;;4.70;3.57;;;;;;;;;;4973064;28;21055;-47
2023/04/01 07:01:45;;;;;;;9.30;7.20;;;;;;;;;;4973572;28;20560;-47
2023/04/01 07:04:11;;;;;;;6.10;3.20;;;;;;;;;;4972724;28;20428;-46
2023/04/01 07:06:46;;;;;;;9.80;4.97;;;;;;;;;;4989737;28;20483;-47
2023/04/01 07:09:24;;;;;;;7.00;5.50;;;;;;;;;;4969226;28;20517;-47
2023/04/01 07:11:51;;;;;;;5.07;4.23;;;;;;;;;;4979555;28;20466;-46
2023/04/01 07:14:26;;;;;;;4.97;4.03;;;;;;;;;;4984440;28;20794;-47
2023/04/01 07:16:56;;;;;;;7.20;4.07;;;;;;;;;;4983947;28;20419;-47
2023/04/01 07:19:26;;;;;;;4.60;3.83;;;;;;;;;;4973976;28;20447;-46
2023/04/01 07:21:55;;;;;;;3.90;3.20;;;;;;;;;;4981588;28;20448;-47
2023/04/01 07:24:29;;;;;;;4.97;3.77;;;;;;;;;;4983424;28;20442;-47
2023/04/01 07:26:56;;;;;;;4.03;3.33;;;;;;;;;;4981919;28;20462;-47
2023/04/01 07:29:23;;;;;;;4.97;3.50;;;;;;;;;;4973310;28;20438;-47
2023/04/01 07:32:07;;;;;;;4.97;3.77;;;;;;;;;;4983590;28;20413;-47
2023/04/01 07:34:45;;;;;;;4.73;3.60;;;;;;;;;;4982182;28;20478;-47
2023/04/01 07:37:15;;;;;;;4.80;4.30;;;;;;;;;;4985390;28;20412;-46
2023/04/01 07:40:04;;;;;;;4.50;4.07;;;;;;;;;;4983259;28;20471;-47
2023/04/01 07:42:30;;;;;;;5.20;3.83;;;;;;;;;;4978453;28;20789;-47
2023/04/01 07:44:56;;;;;;;8.80;6.20;;;;;;;;;;4982783;28;20433;-47
2023/04/01 07:47:37;;;;;;;4.50;3.80;;;;;;;;;;4971357;28;20464;-47
2023/04/01 07:50:17;;;;;;;5.67;4.33;;;;;;;;;;4983420;28;20816;-47
2023/04/01 07:52:49;;;;;;;5.57;4.17;;;;;;;;;;4983146;28;20416;-46
2023/04/01 07:55:19;;;;;;;6.77;4.27;;;;;;;;;;4986578;28;20420;-46
2023/04/01 07:57:53;;;;;;;2.83;2.60;;;;;;;;;;4983516;28;20416;-46
2023/04/01 08:00:23;;;;;;;3.27;2.97;;;;;;;;;;4978722;28;20483;-46
2023/04/01 08:02:52;;;;;;;4.20;3.47;;;;;;;;;;4986445;28;20416;-47
2023/04/01 08:05:29;;;;;;;10.23;3.90;;;;;;;;;;4983315;28;20422;-46
2023/04/01 08:07:55;;;;;;;4.43;3.53;;;;;;;;;;4981673;28;20474;-47
2023/04/01 08:10:21;;;;;;;4.77;3.60;;;;;;;;;;4984810;28;20403;-46
2023/04/01 08:12:55;;;;;;;6.30;4.67;;;;;;;;;;4983031;28;20488;-46
2023/04/01 08:15:36;;;;;;;7.73;6.20;;;;;;;;;;4982122;28;20802;-46
2023/04/01 08:18:05;;;;;;;7.07;5.10;;;;;;;;;;4982204;28;20428;-46
2023/04/01 08:20:31;;;;;;;4.30;3.50;;;;;;;;;;4986820;28;20521;-47
2023/04/01 08:23:16;;;;;;;4.97;3.40;;;;;;;;;;4986378;28;20502;-47
2023/04/01 08:25:48;;;;;;;3.77;3.40;;;;;;;;;;4982927;28;20623;-47
2023/04/01 08:28:18;;;;;;;3.87;3.37;;;;;;;;;;4977999;28;20840;-47
2023/04/01 08:30:46;;;;;;;4.37;3.40;;;;;;;;;;4986347;28;20462;-47
2023/04/01 08:33:26;;;;;;;5.80;3.57;;;;;;;;;;4983534;28;20917;-47
2023/04/01 08:35:52;;;;;;;4.43;3.70;;;;;;;;;;4982787;28;20413;-47
2023/04/01 08:38:21;;;;;;;4.60;3.87;;;;;;;;;;4984218;28;20430;-47
2023/04/01 08:40:56;;;;;;;5.33;3.80;;;;;;;;;;4986138;28;20450;-47
2023/04/01 08:43:28;;;;;;;4.97;4.00;;;;;;;;;;4982846;28;20413;-47
2023/04/01 08:46:00;;;;;;;8.40;6.53;;;;;;;;;;4981514;28;20423;-47
2023/04/01 08:48:45;;;;;;;10.13;4.00;;;;;;;;;;4979180;28;20925;-47
2023/04/01 08:51:21;;;;;;;6.70;5.37;;;;;;;;;;4983748;28;20453;-47
2023/04/01 08:53:59;;;;;;;4.17;3.57;;;;;;;;;;4983142;28;20418;-47
2023/04/01 08:56:37;;;;;;;5.47;4.17;;;;;;;;;;4971047;28;20447;-47
2023/04/01 08:59:16;;;;;;;4.93;4.43;;;;;;;;;;4984973;28;20550;-47
2023/04/01 09:01:51;;;;;;;5.93;4.17;;;;;;;;;;4976998;28;20839;-47
2023/04/01 09:04:25;;;;;;;5.70;4.37;;;;;;;;;;4982252;28;20734;-47
2023/04/01 09:06:59;;;;;;;4.20;3.80;;;;;;;;;;4981999;28;20534;-48
2023/04/01 09:09:51;;;;;;;4.87;4.13;;;;;;;;;;4977405;28;20433;-47
2023/04/01 09:12:44;;;;;;;5.83;4.93;;;;;;;;;;4986243;28;20412;-47
2023/04/01 09:15:28;;;;;;;4.30;3.90;;;;;;;;;;4983326;28;20404;-47
2023/04/01 09:18:12;;;;;;;7.63;4.97;;;;;;;;;;4979404;28;20802;-47
2023/04/01 09:20:41;;;;;;;5.40;4.60;;;;;;;;;;4977207;28;20515;-47
2023/04/01 09:23:13;;;;;;;5.13;4.60;;;;;;;;;;4983485;28;20482;-47
2023/04/01 09:25:39;;;;;;;6.43;5.33;;;;;;;;;;4983052;28;20916;-46
2023/04/01 09:28:17;;;;;;;5.77;5.17;;;;;;;;;;4978586;28;20468;-47
2023/04/01 09:30:49;;;;;;;8.67;5.10;;;;;;;;;;4978765;28;20440;-47
2023/04/01 09:33:34;;;;;;;6.93;5.50;;;;;;;;;;4984131;28;20845;-47
2023/04/01 09:36:03;;;;;;;5.80;5.00;;;;;;;;;;4981679;28;20433;-46
2023/04/01 09:38:30;;;;;;;6.33;5.33;;;;;;;;;;4983386;28;20487;-47
2023/04/01 09:40:56;;;;;;;5.67;5.07;;;;;;;;;;4981320;28;20433;-47
2023/04/01 09:43:22;;;;;;;7.53;5.90;;;;;;;;;;4979786;28;20480;-47
2023/04/01 09:45:55;;;;;;;10.13;7.57;;;;;;;;;;4976730;28;20448;-47
2023/04/01 09:48:47;;;;;;;7.80;6.37;;;;;;;;;;4974359;28;20522;-47
2023/04/01 09:51:19;;;;;;;8.47;6.13;;;;;;;;;;4984787;28;20407;-47
2023/04/01 09:53:55;;;;;;;9.97;5.87;;;;;;;;;;4983138;28;20466;-47
2023/04/01 09:56:31;;;;;;;8.87;6.07;;;;;;;;;;4978146;28;20604;-46
2023/04/01 09:59:15;;;;;;;8.57;6.40;;;;;;;;;;4976326;28;20432;-47
2023/04/01 10:01:47;;;;;;;11.60;7.33;;;;;;;;;;4984069;28;20407;-47
2023/04/01 10:04:25;;;;;;;9.90;7.83;;;;;;;;;;4980656;28;20427;-46
2023/04/01 10:06:51;;;;;;;11.27;6.97;;;;;;;;;;4979889;28;20827;-46
2023/04/01 10:09:43;;;;;;;13.17;9.17;;;;;;;;;;4981596;28;20486;-46
2023/04/01 10:12:19;;;;;;;14.70;9.80;;;;;;;;;;4979212;28;20429;-47
2023/04/01 10:14:54;;;;;;;14.63;8.53;;;;;;;;;;4972114;28;20463;-48
2023/04/01 10:17:31;;;;;;;12.60;9.13;;;;;;;;;;4965391;28;20428;-47
2023/04/01 10:20:10;;;;;;;13.63;8.50;;;;;;;;;;4973016;28;20531;-47
2023/04/01 10:22:36;;;;;;;11.50;8.10;;;;;;;;;;4973916;28;20503;-47
2023/04/01 10:25:20;;;;;;;10.73;7.60;;;;;;;;;;4973395;28;20516;-48
2023/04/01 10:27:49;;;;;;;12.37;8.27;;;;;;;;;;4973156;28;20563;-47
2023/04/01 10:30:18;;;;;;;10.90;8.13;;;;;;;;;;4973821;28;20901;-48
2023/04/01 10:33:03;;;;;;;12.47;8.90;;;;;;;;;;4972881;28;20790;-46
2023/04/01 10:35:38;;;;;;;11.20;8.43;;;;;;;;;;4973530;28;20495;-48
2023/04/01 10:38:23;;;;;;;11.13;7.17;;;;;;;;;;4973647;28;20428;-48
2023/04/01 10:40:58;;;;;;;9.80;6.73;;;;;;;;;;4973474;28;20443;-47
2023/04/01 10:43:43;;;;;;;10.37;7.67;;;;;;;;;;4972920;28;20425;-48
2023/04/01 10:46:11;;;;;;;8.87;7.30;;;;;;;;;;4972865;28;20439;-47
2023/04/01 10:48:37;;;;;;;11.73;7.57;;;;;;;;;;4971752;28;20499;-47
2023/04/01 10:51:22;;;;;;;8.33;6.60;;;;;;;;;;4972440;28;20465;-48
2023/04/01 10:54:15;;;;;;;8.43;7.53;;;;;;;;;;4953432;28;20470;-47
2023/04/01 10:57:00;;;;;;;8.80;6.37;;;;;;;;;;4971433;28;20413;-47
2023/04/01 10:59:45;;;;;;;9.40;7.23;;;;;;;;;;4953439;28;20422;-46
2023/04/01 11:02:11;;;;;;;13.23;8.50;;;;;;;;;;4953713;28;20416;-47
2023/04/01 11:04:46;;;;;;;9.03;6.20;;;;;;;;;;4973195;28;20420;-48
2023/04/01 11:07:15;;;;;;;8.73;7.03;;;;;;;;;;4976313;28;20467;-46
2023/04/01 11:10:07;;;;;;;7.00;5.30;;;;;;;;;;4974245;28;20445;-48
2023/04/01 11:12:39;;;;;;;8.83;7.27;;;;;;;;;;4967888;28;20435;-47
2023/04/01 11:15:23;;;;;;;7.07;5.57;;;;;;;;;;4976110;28;20419;-47
2023/04/01 11:17:52;;;;;;;7.47;6.03;;;;;;;;;;4975879;28;20567;-47
2023/04/01 11:20:30;;;;;;;7.93;6.43;;;;;;;;;;4975121;28;20424;-48
2023/04/01 11:22:59;;;;;;;7.40;5.83;;;;;;;;;;4975895;28;20901;-47
2023/04/01 11:25:44;;;;;;;9.50;6.60;;;;;;;;;;4976595;28;20439;-47
2023/04/01 11:28:16;;;;;;;7.87;6.07;;;;;;;;;;4975830;28;20844;-46
2023/04/01 11:31:00;;;;;;;8.50;5.90;;;;;;;;;;4976524;28;20787;-47
2023/04/01 11:33:30;;;;;;;10.90;6.40;;;;;;;;;;4975511;28;20404;-47
2023/04/01 11:36:10;;;;;;;12.23;6.20;;;;;;;;;;4974583;28;20834;-49
2023/04/01 11:39:01;;;;;;;6.33;5.23;;;;;;;;;;4965560;28;20518;-46
2023/04/01 11:41:45;;;;;;;8.47;5.73;;;;;;;;;;4958066;28;20430;-47
2023/04/01 11:44:19;;;;;;;8.37;5.77;;;;;;;;;;4956277;28;20414;-47
2023/04/01 11:46:55;;;;;;;6.20;5.00;;;;;;;;;;4974901;28;21022;-47
2023/04/01 11:49:37;;;;;;;10.33;7.03;;;;;;;;;;4974446;28;20432;-47
2023/04/01 11:52:03;;;;;;;7.63;6.50;;;;;;;;;;4974955;28;20417;-47
2023/04/01 11:54:32;;;;;;;9.60;6.17;;;;;;;;;;4975475;28;20419;-47
2023/04/01 11:57:14;;;;;;;9.30;7.03;;;;;;;;;;4975173;28;20424;-47
2023/04/01 11:59:52;;;;;;;10.03;7.23;;;;;;;;;;4974955;28;20432;-47
2023/04/01 12:02:43;;;;;;;7.70;6.90;;;;;;;;;;4983192;28;20476;-47
2023/04/01 12:05:20;;;;;;;11.10;8.60;;;;;;;;;;4981172;28;20425;-47
2023/04/01 12:07:52;;;;;;;7.13;6.20;;;;;;;;;;4971680;28;20465;-47
2023/04/01 12:10:18;;;;;;;7.63;5.93;;;;;;;;;;4974336;28;20559;-47
2023/04/01 12:12:45;;;;;;;9.37;6.60;;;;;;;;;;4975584;28;20484;-47
2023/04/01 12:15:30;;;;;;;11.37;8.00;;;;;;;;;;4974415;28;21206;-47
2023/04/01 12:18:03;;;;;;;8.67;6.33;;;;;;;;;;4955582;28;20418;-47
2023/04/01 12:20:47;;;;;;;8.03;6.03;;;;;;;;;;4963275;28;20786;-47
2023/04/01 12:23:32;;;;;;;8.13;6.00;;;;;;;;;;4984868;28;20423;-48
2023/04/01 12:26:07;;;;;;;7.70;6.07;;;;;;;;;;4983429;28;20432;-48
2023/04/01 12:28:42;;;;;;;6.60;5.97;;;;;;;;;;4985259;28;20432;-47
2023/04/01 12:31:28;;;;;;;7.33;5.80;;;;;;;;;;4985730;28;20400;-47
2023/04/01 12:33:54;;;;;;;9.30;6.90;;;;;;;;;;4985806;28;20404;-48
2023/04/01 12:36:26;;;;;;;6.20;5.50;;;;;;;;;;4981928;28;20431;-47
2023/04/01 12:38:52;;;;;;;16.10;6.10;;;;;;;;;;4987014;28;20481;-47
2023/04/01 12:41:27;;;;;;;9.50;5.70;;;;;;;;;;4982043;28;20425;-48
2023/04/01 12:43:53;;;;;;;6.53;5.43;;;;;;;;;;4981192;28;20423;-47
2023/04/01 12:46:32;;;;;;;7.77;5.83;;;;;;;;;;4983176;28;20400;-48
2023/04/01 12:48:58;;;;;;;5.57;4.93;;;;;;;;;;4982268;28;20527;-48
2023/04/01 12:51:30;;;;;;;7.60;5.00;;;;;;;;;;4986019;28;20491;-48
2023/04/01 12:53:59;;;;;;;6.37;5.30;;;;;;;;;;4983553;28;20476;-46
2023/04/01 13:02:00;;;;;;;6.87;6.17;;;;;;;;;;4981001;23;20260;-48
2023/04/01 13:04:43;;;;;;;6.50;5.90;;;;;;;;;;4954841;28;20489;-47
2023/04/01 13:07:28;;;;;;;5.87;5.27;;;;;;;;;;4947731;28;21865;-46
2023/04/01 13:10:01;;;;;;;7.47;6.20;;;;;;;;;;4953429;28;20477;-47
2023/04/01 13:12:46;;;;;;;6.23;5.70;;;;;;;;;;4955248;28;20410;-47
2023/04/01 13:15:31;;;;;;;6.70;6.10;;;;;;;;;;4951652;28;21024;-47
2023/04/01 13:17:57;;;;;;;6.00;5.43;;;;;;;;;;4943689;29;20422;-47
2023/04/01 13:20:28;;;;;;;6.67;5.50;;;;;;;;;;4954657;28;20451;-47
2023/04/01 13:23:12;;;;;;;7.53;5.70;;;;;;;;;;4954080;28;20431;-48
2023/04/01 13:25:47;;;;;;;7.93;5.80;;;;;;;;;;4946987;28;20444;-47
2023/04/01 13:28:20;;;;;;;14.83;8.20;;;;;;;;;;4954449;28;20532;-46
2023/04/01 13:30:49;;;;;;;8.67;7.77;;;;;;;;;;4953934;28;20438;-47
2023/04/01 13:33:29;;;;;;;9.63;7.93;;;;;;;;;;4955663;28;20962;-47
2023/04/01 13:35:55;;;;;;;8.13;7.13;;;;;;;;;;4954138;28;20417;-47
2023/04/01 13:38:39;;;;;;;10.23;8.47;;;;;;;;;;4953053;28;20829;-47
2023/04/01 13:41:26;;;;;;;10.47;9.17;;;;;;;;;;4954033;28;20532;-47
2023/04/01 13:43:57;;;;;;;12.33;9.80;;;;;;;;;;4953901;28;20913;-47
2023/04/01 13:46:23;;;;;;;9.47;8.47;;;;;;;;;;4954801;28;20481;-47
2023/04/01 13:48:55;;;;;;;10.30;8.50;;;;;;;;;;4951063;28;20462;-47
2023/04/01 13:51:35;;;;;;;9.50;8.10;;;;;;;;;;4953726;28;20870;-47
2023/04/01 13:54:19;;;;;;;9.47;6.73;;;;;;;;;;4953938;28;20410;-47
2023/04/01 13:57:04;;;;;;;8.73;7.37;;;;;;;;;;4939567;28;20425;-47
2023/04/01 13:59:30;;;;;;;13.23;7.23;;;;;;;;;;4953419;28;20417;-46
2023/04/01 14:01:56;;;;;;;12.50;6.87;;;;;;;;;;4953953;28;20406;-47
2023/04/01 14:04:40;;;;;;;7.73;6.93;;;;;;;;;;4954142;28;20406;-47
2023/04/01 14:07:25;;;;;;;10.97;7.60;;;;;;;;;;4953665;28;20527;-47
2023/04/01 14:09:57;;;;;;;10.00;6.17;;;;;;;;;;4937311;29;20456;-47
2023/04/01 14:12:31;;;;;;;7.03;6.10;;;;;;;;;;4954071;28;20933;-47
2023/04/01 14:15:21;;;;;;;8.80;7.07;;;;;;;;;;4953902;28;20798;-47
2023/04/01 14:17:47;;;;;;;7.27;6.10;;;;;;;;;;4953970;28;20425;-47
2023/04/01 14:20:16;;;;;;;13.30;7.03;;;;;;;;;;4953930;28;20444;-47
2023/04/01 14:22:55;;;;;;;7.30;6.20;;;;;;;;;;4965445;28;20778;-47
2023/04/01 14:25:40;;;;;;;8.57;7.13;;;;;;;;;;4954186;28;20447;-47
2023/04/01 14:28:11;;;;;;;8.47;6.77;;;;;;;;;;4957997;28;20523;-47
2023/04/01 14:30:56;;;;;;;10.13;6.83;;;;;;;;;;4964871;28;20519;-47
2023/04/01 14:33:25;;;;;;;8.10;7.17;;;;;;;;;;4957408;28;20447;-47
2023/04/01 14:36:11;;;;;;;6.63;4.77;;;;;;;;;;4960741;28;20421;-47
2023/04/01 14:38:47;;;;;;;8.00;6.00;;;;;;;;;;4963748;28;20413;-46
2023/04/01 14:41:21;;;;;;;8.23;5.80;;;;;;;;;;4966978;28;20966;-47
2023/04/01 14:43:47;;;;;;;6.67;5.97;;;;;;;;;;4965688;28;20406;-47
2023/04/01 14:46:16;;;;;;;5.67;5.10;;;;;;;;;;4968630;28;20915;-47
2023/04/01 14:48:52;;;;;;;12.60;5.77;;;;;;;;;;4966680;28;20507;-47
2023/04/01 14:51:20;;;;;;;9.27;7.17;;;;;;;;;;4960734;28;20432;-47
2023/04/01 14:53:59;;;;;;;8.20;6.10;;;;;;;;;;4968107;28;20437;-47
2023/04/01 14:56:44;;;;;;;11.97;8.27;;;;;;;;;;4958093;28;20463;-47
2023/04/01 14:59:22;;;;;;;8.23;6.27;;;;;;;;;;4956840;28;20414;-46
2023/04/01 15:01:58;;;;;;;10.80;7.03;;;;;;;;;;4957023;28;20423;-46
2023/04/01 15:04:47;;;;;;;15.33;6.83;;;;;;;;;;4966152;28;20408;-47
2023/04/01 15:07:25;;;;;;;7.93;6.17;;;;;;;;;;4963271;28;20463;-47
2023/04/01 15:10:10;;;;;;;7.77;6.20;;;;;;;;;;4961247;28;20524;-47
2023/04/01 15:12:36;;;;;;;8.10;6.07;;;;;;;;;;4961895;28;20405;-46
2023/04/01 15:15:05;;;;;;;10.17;7.23;;;;;;;;;;4966426;28;20410;-47
2023/04/01 15:17:42;;;;;;;9.77;7.27;;;;;;;;;;4963508;28;20424;-46